createdAt,value
2022-12-25T00:01:37.645Z,48.85
2022-12-25T00:04:04.205Z,39.85
2022-12-25T00:06:30.689Z,43.50
2022-12-25T00:08:57.159Z,51.05
2022-12-25T00:11:23.658Z,42.65
2022-12-25T00:13:50.143Z,39.40
2022-12-25T00:16:21.791Z,46.35
2022-12-25T00:18:48.508Z,49.50
2022-12-25T00:21:15.586Z,46.53
2022-12-25T00:23:42.244Z,41.28
2022-12-25T00:26:13.540Z,47.53
2022-12-25T00:28:40.067Z,50.13
2022-12-25T00:31:17.035Z,46.53
2022-12-25T00:33:44.691Z,49.40
2022-12-25T00:36:11.932Z,61.30
2022-12-25T00:38:39.578Z,54.15
2022-12-25T00:41:10.455Z,56.13
2022-12-25T00:43:38.535Z,44.67
2022-12-25T00:46:06.697Z,52.05
2022-12-25T00:48:33.822Z,50.05
2022-12-25T00:51:01.695Z,57.67
2022-12-25T00:53:28.433Z,62.05
2022-12-25T00:55:56.223Z,58.25
2022-12-25T00:58:23.175Z,60.92
2022-12-25T01:00:49.939Z,52.67
2022-12-25T01:03:17.092Z,52.50
2022-12-25T01:05:44.350Z,47.90
2022-12-25T01:08:10.826Z,49.55
2022-12-25T01:10:37.265Z,49.05
2022-12-25T01:13:03.754Z,50.17
2022-12-25T01:15:30.208Z,47.95
2022-12-25T01:17:56.622Z,48.17
2022-12-25T01:20:23.084Z,53.00
2022-12-25T01:22:49.475Z,53.65
2022-12-25T01:25:15.954Z,56.53
2022-12-25T01:27:42.636Z,57.67
2022-12-25T01:30:09.434Z,48.88
2022-12-25T01:32:35.904Z,52.33
2022-12-25T01:35:02.294Z,53.60
2022-12-25T01:37:28.719Z,56.58
2022-12-25T01:39:55.130Z,58.67
2022-12-25T01:42:23.717Z,58.67
2022-12-25T01:44:50.202Z,64.65
2022-12-25T01:47:17.845Z,63.20
2022-12-25T01:49:46.405Z,68.95
2022-12-25T01:52:21.802Z,56.70
2022-12-25T01:54:53.564Z,50.33
2022-12-25T01:57:22.912Z,45.88
2022-12-25T01:59:49.794Z,49.95
2022-12-25T02:02:16.345Z,56.20
2022-12-25T02:04:48.046Z,53.08
2022-12-25T02:07:19.600Z,55.95
2022-12-25T02:09:46.559Z,54.22
2022-12-25T02:12:18.884Z,56.30
2022-12-25T02:14:47.357Z,51.65
2022-12-25T02:17:34.041Z,52.88
2022-12-25T02:20:04.008Z,55.50
2022-12-25T02:22:33.551Z,57.30
2022-12-25T02:25:08.049Z,60.50
2022-12-25T02:27:46.643Z,58.38
2022-12-25T02:30:14.784Z,57.13
2022-12-25T02:32:45.390Z,53.63
2022-12-25T02:35:20.853Z,53.22
2022-12-25T02:38:01.357Z,51.45
2022-12-25T02:40:30.811Z,53.83
2022-12-25T02:43:20.597Z,52.22
2022-12-25T02:46:11.170Z,53.50
2022-12-25T02:48:59.539Z,53.63
2022-12-25T02:51:45.861Z,57.50
2022-12-25T02:54:32.738Z,51.85
2022-12-25T02:57:18.298Z,46.40
2022-12-25T03:00:05.306Z,52.00
2022-12-25T03:02:52.021Z,52.47
2022-12-25T03:05:40.160Z,54.58
2022-12-25T03:08:08.400Z,52.28
2022-12-25T03:10:55.917Z,53.17
2022-12-25T03:13:26.657Z,50.67
2022-12-25T03:16:11.963Z,55.75
2022-12-25T03:18:38.564Z,55.15
2022-12-25T03:21:23.632Z,51.85
2022-12-25T03:24:21.313Z,54.47
2022-12-25T03:26:57.992Z,54.03
2022-12-25T03:29:52.616Z,56.45
2022-12-25T03:32:40.090Z,50.95
2022-12-25T03:35:25.438Z,51.90
2022-12-25T03:38:10.308Z,50.10
2022-12-25T03:41:14.179Z,47.75
2022-12-25T03:44:04.699Z,49.78
2022-12-25T03:46:52.654Z,51.83
2022-12-25T03:49:44.190Z,47.78
2022-12-25T03:52:31.484Z,48.33
2022-12-25T03:55:18.201Z,47.08
2022-12-25T03:58:02.957Z,42.90
2022-12-25T04:00:58.373Z,49.00
2022-12-25T04:03:43.493Z,48.80
2022-12-25T04:06:28.582Z,45.97
2022-12-25T04:09:33.411Z,44.40
2022-12-25T04:12:18.334Z,44.67
2022-12-25T04:15:17.075Z,45.20
2022-12-25T04:18:01.957Z,45.50
2022-12-25T04:20:46.983Z,45.00
2022-12-25T04:23:31.770Z,46.10
2022-12-25T04:26:17.384Z,45.35
2022-12-25T04:29:02.189Z,46.58
2022-12-25T04:31:46.968Z,43.97
2022-12-25T04:34:32.154Z,45.67
2022-12-25T04:36:58.583Z,44.25
2022-12-25T04:39:25.017Z,45.63
2022-12-25T04:41:51.448Z,51.67
2022-12-25T04:44:17.842Z,48.78
2022-12-25T04:46:44.407Z,48.92
2022-12-25T04:49:10.914Z,48.85
2022-12-25T04:51:37.426Z,49.95
2022-12-25T04:54:03.876Z,48.10
2022-12-25T04:56:30.288Z,47.97
2022-12-25T04:58:56.779Z,47.97
2022-12-25T05:01:23.358Z,46.88
2022-12-25T05:03:49.992Z,43.38
2022-12-25T05:06:16.444Z,45.30
2022-12-25T05:08:42.919Z,41.80
2022-12-25T05:11:10.642Z,43.85
2022-12-25T05:13:37.177Z,39.67
2022-12-25T05:16:12.374Z,41.83
2022-12-25T05:18:38.975Z,40.15
2022-12-25T05:21:07.856Z,44.33
2022-12-25T05:23:34.544Z,41.55
2022-12-25T05:26:07.575Z,42.38
2022-12-25T05:28:35.129Z,47.10
2022-12-25T05:31:01.623Z,46.45
2022-12-25T05:33:28.054Z,45.15
2022-12-25T05:35:54.507Z,40.13
2022-12-25T05:38:20.925Z,41.20
2022-12-25T05:40:47.405Z,40.38
2022-12-25T05:43:13.924Z,38.90
2022-12-25T05:45:40.360Z,41.35
2022-12-25T05:48:06.795Z,41.63
2022-12-25T05:50:33.323Z,42.85
2022-12-25T05:53:04.423Z,39.78
2022-12-25T05:55:35.122Z,35.17
2022-12-25T05:58:01.724Z,43.00
2022-12-25T06:00:28.410Z,39.33
2022-12-25T06:02:54.958Z,37.95
2022-12-25T06:05:21.441Z,39.92
2022-12-25T06:07:47.865Z,39.88
2022-12-25T06:10:14.349Z,38.55
2022-12-25T06:12:40.906Z,38.47
2022-12-25T06:15:07.737Z,39.75
2022-12-25T06:17:34.152Z,39.38
2022-12-25T06:20:00.623Z,40.33
2022-12-25T06:22:30.874Z,36.15
2022-12-25T06:24:57.546Z,42.40
2022-12-25T06:27:24.563Z,39.63
2022-12-25T06:29:50.987Z,39.22
2022-12-25T06:32:17.426Z,38.53
2022-12-25T06:34:44.010Z,41.30
2022-12-25T06:37:10.460Z,39.38
2022-12-25T06:39:37.012Z,33.97
2022-12-25T06:42:03.688Z,37.20
2022-12-25T06:44:30.159Z,38.40
2022-12-25T06:46:56.651Z,38.63
2022-12-25T06:49:23.067Z,39.75
2022-12-25T06:51:49.563Z,44.97
2022-12-25T06:54:16.048Z,46.38
2022-12-25T06:56:42.476Z,48.63
2022-12-25T06:59:10.021Z,46.53
2022-12-25T07:01:38.359Z,45.90
2022-12-25T07:04:06.560Z,45.05
2022-12-25T07:06:33.544Z,44.33
2022-12-25T07:09:00.158Z,41.53
2022-12-25T07:11:26.607Z,40.50
2022-12-25T07:13:53.079Z,42.55
2022-12-25T07:16:20.201Z,45.50
2022-12-25T07:18:46.688Z,37.70
2022-12-25T07:21:15.040Z,39.22
2022-12-25T07:23:42.195Z,39.90
2022-12-25T07:26:10.003Z,38.35
2022-12-25T07:28:36.488Z,41.05
2022-12-25T07:31:13.703Z,41.65
2022-12-25T07:33:40.662Z,36.00
2022-12-25T07:36:07.852Z,40.17
2022-12-25T07:38:39.237Z,33.53
2022-12-25T07:41:08.168Z,37.50
2022-12-25T07:43:34.618Z,38.22
2022-12-25T07:46:01.584Z,39.20
2022-12-25T07:48:28.592Z,36.42
2022-12-25T07:50:55.942Z,34.17
2022-12-25T07:53:22.383Z,34.88
2022-12-25T07:55:48.818Z,33.83
2022-12-25T07:58:21.370Z,32.40
2022-12-25T08:00:50.555Z,29.70
2022-12-25T08:03:17.293Z,28.70
2022-12-25T08:05:43.903Z,33.10
2022-12-25T08:08:11.032Z,33.35
2022-12-25T08:10:37.577Z,29.08
2022-12-25T08:13:09.039Z,30.85
2022-12-25T15:03:37.821Z,45.22
2022-12-25T15:06:19.116Z,40.97
2022-12-25T15:08:56.676Z,41.47
2022-12-25T15:11:23.159Z,41.15
2022-12-25T15:13:49.639Z,39.80
2022-12-25T15:16:19.734Z,38.63
2022-12-25T15:18:46.735Z,39.20
2022-12-25T15:21:34.839Z,40.08
2022-12-25T15:24:01.333Z,40.63
2022-12-25T15:26:28.604Z,43.40
2022-12-25T15:28:55.757Z,45.70
2022-12-25T15:31:25.252Z,53.25
2022-12-25T15:33:54.635Z,61.47
2022-12-25T15:36:21.592Z,68.50
2022-12-25T15:38:48.998Z,78.15
2022-12-25T15:41:37.338Z,76.32
2022-12-25T15:44:05.662Z,115.57
2022-12-25T15:46:32.357Z,248.00
2022-12-25T15:48:58.855Z,349.95
2022-12-25T15:51:26.222Z,178.00
2022-12-25T15:53:52.761Z,165.98
2022-12-25T15:56:20.108Z,77.55
2022-12-25T15:58:46.518Z,89.07
2022-12-25T16:01:16.674Z,87.28
2022-12-25T16:03:44.809Z,69.22
2022-12-25T16:06:18.290Z,66.70
2022-12-25T16:08:45.538Z,64.88
2022-12-25T16:11:11.987Z,66.57
2022-12-25T16:13:39.433Z,69.15
2022-12-25T16:16:07.007Z,63.08
2022-12-25T16:18:34.422Z,59.60
2022-12-25T16:21:03.363Z,62.10
2022-12-25T16:23:31.354Z,55.88
2022-12-25T16:25:57.855Z,55.45
2022-12-25T16:28:24.279Z,58.97
2022-12-25T16:30:51.522Z,56.03
2022-12-25T16:33:18.073Z,55.25
2022-12-25T16:35:45.983Z,54.17
2022-12-25T16:38:12.616Z,52.25
2022-12-25T16:40:39.123Z,56.63
2022-12-25T16:43:06.430Z,57.13
2022-12-25T16:45:37.196Z,53.45
2022-12-25T16:48:04.448Z,53.30
2022-12-25T16:50:30.884Z,56.20
2022-12-25T16:52:58.002Z,60.70
2022-12-25T16:55:29.652Z,71.88
2022-12-25T16:57:57.951Z,72.95
2022-12-25T17:00:24.465Z,81.78
2022-12-25T17:02:51.062Z,77.82
2022-12-25T17:05:21.589Z,77.28
2022-12-25T17:07:48.368Z,89.00
2022-12-25T17:10:15.560Z,87.53
2022-12-25T17:12:42.506Z,85.53
2022-12-25T17:15:10.496Z,89.90
2022-12-25T17:17:36.914Z,83.15
2022-12-25T17:20:06.556Z,76.75
2022-12-25T17:22:33.701Z,76.13
2022-12-25T17:25:00.821Z,73.72
2022-12-25T17:27:27.687Z,68.47
2022-12-25T17:29:55.588Z,64.32
2022-12-25T17:32:22.048Z,61.08
2022-12-25T17:34:48.563Z,58.35
2022-12-25T17:37:15.889Z,56.90
2022-12-25T17:39:42.316Z,61.47
2022-12-25T17:42:09.733Z,56.92
2022-12-25T17:44:36.210Z,53.17
2022-12-25T17:47:03.492Z,54.80
2022-12-25T17:49:30.082Z,54.45
2022-12-25T17:51:57.241Z,51.97
2022-12-25T17:54:23.651Z,58.38
2022-12-25T17:56:51.428Z,51.92
2022-12-25T17:59:23.181Z,50.58
2022-12-25T18:01:50.417Z,55.75
2022-12-25T18:04:17.075Z,60.83
2022-12-25T18:06:49.755Z,60.38
2022-12-25T18:09:16.277Z,58.33
2022-12-25T18:11:43.046Z,60.08
2022-12-25T18:14:12.507Z,55.45
2022-12-25T18:16:41.493Z,48.60
2022-12-25T18:19:08.409Z,47.35
2022-12-25T18:21:36.474Z,49.33
2022-12-25T18:24:03.980Z,39.90
2022-12-25T18:26:30.570Z,38.25
2022-12-25T18:28:58.457Z,38.75
2022-12-25T18:31:26.439Z,37.72
2022-12-25T18:33:53.848Z,35.95
2022-12-25T18:36:21.952Z,36.13
2022-12-25T18:38:49.883Z,34.13
2022-12-25T18:41:16.416Z,34.45
2022-12-25T18:43:52.123Z,35.63
2022-12-25T18:46:24.024Z,33.22
2022-12-25T18:48:52.018Z,33.65
2022-12-25T18:51:18.694Z,34.88
2022-12-25T18:53:45.234Z,35.03
2022-12-25T18:56:17.691Z,33.30
2022-12-25T18:58:44.959Z,33.40
2022-12-25T19:01:21.537Z,31.88
2022-12-25T19:03:49.234Z,29.60
2022-12-25T19:06:27.381Z,27.52
2022-12-25T19:08:53.982Z,27.75
2022-12-25T19:11:20.773Z,27.80
2022-12-25T19:13:48.269Z,28.88
2022-12-25T19:16:14.888Z,27.42
2022-12-25T19:18:42.611Z,27.73
2022-12-25T19:21:12.394Z,24.55
2022-12-25T19:23:39.886Z,23.73
2022-12-25T19:26:07.440Z,25.88
2022-12-25T19:28:34.199Z,25.27
2022-12-25T19:31:01.914Z,26.88
2022-12-25T19:33:30.374Z,26.90
2022-12-25T19:36:10.486Z,22.65
2022-12-25T19:38:37.299Z,23.35
2022-12-25T19:41:07.435Z,24.35
2022-12-25T19:43:37.452Z,22.92
2022-12-25T19:46:04.757Z,24.27
2022-12-25T19:48:33.369Z,23.85
2022-12-25T19:51:00.322Z,25.40
2022-12-25T19:53:27.915Z,26.95
2022-12-25T19:55:54.570Z,27.10
2022-12-25T19:58:22.529Z,24.30
2022-12-25T20:01:02.495Z,28.05
2022-12-25T20:03:31.493Z,26.73
2022-12-25T20:05:58.047Z,27.73
2022-12-25T20:08:24.634Z,26.50
2022-12-25T20:10:52.377Z,25.27
2022-12-25T20:13:18.846Z,25.23
2022-12-25T20:15:46.278Z,24.17
2022-12-25T20:18:12.873Z,22.55
2022-12-25T20:20:40.253Z,23.55
2022-12-25T20:23:08.778Z,22.63
2022-12-25T20:25:41.382Z,21.73
2022-12-25T20:28:07.925Z,21.50
2022-12-25T20:30:34.519Z,18.67
2022-12-25T20:33:02.588Z,19.90
2022-12-25T20:35:29.012Z,21.13
2022-12-25T20:37:57.410Z,18.15
2022-12-25T20:40:23.875Z,17.65
2022-12-25T20:42:50.389Z,17.70
2022-12-25T20:45:21.542Z,18.17
2022-12-25T20:47:47.997Z,17.80
2022-12-25T20:50:14.429Z,17.73
2022-12-25T20:52:41.688Z,17.10
2022-12-25T20:55:08.258Z,17.42
2022-12-25T20:57:35.610Z,17.20
2022-12-25T21:00:02.132Z,16.95
2022-12-25T21:02:33.899Z,16.15
2022-12-25T21:05:02.272Z,15.25
2022-12-25T21:07:28.747Z,14.52
2022-12-25T21:09:56.344Z,14.88
2022-12-25T21:12:22.764Z,14.45
2022-12-25T21:14:50.056Z,14.43
2022-12-25T21:17:16.665Z,14.85
2022-12-25T21:19:44.374Z,14.27
2022-12-25T21:22:11.751Z,13.43
2022-12-25T21:24:39.335Z,14.65
2022-12-25T21:27:05.802Z,14.85
2022-12-25T21:29:33.154Z,15.18
2022-12-25T21:32:18.038Z,15.13
2022-12-25T21:34:46.389Z,16.95
2022-12-25T21:37:12.839Z,18.45
2022-12-25T21:39:40.225Z,17.45
2022-12-25T21:42:06.650Z,16.80
2022-12-25T21:44:33.165Z,18.95
2022-12-25T21:47:01.386Z,18.35
2022-12-25T21:50:06.021Z,17.77
2022-12-25T21:52:33.650Z,16.65
2022-12-25T21:55:00.162Z,15.85
2022-12-25T21:57:27.389Z,16.75
2022-12-25T21:59:53.819Z,15.85
2022-12-25T22:02:21.176Z,16.83
2022-12-25T22:04:47.733Z,14.88
2022-12-25T22:07:21.270Z,13.77
2022-12-25T22:09:48.918Z,13.77
2022-12-25T22:12:41.420Z,14.95
2022-12-25T22:15:10.496Z,13.32
2022-12-25T22:17:57.277Z,14.77
2022-12-25T22:20:27.925Z,14.25
2022-12-25T22:22:58.163Z,13.95
2022-12-25T22:25:24.917Z,13.88
2022-12-25T22:27:51.468Z,15.23
2022-12-25T22:30:20.083Z,15.60
2022-12-25T22:32:46.722Z,15.40
2022-12-25T22:35:14.912Z,15.65
2022-12-25T22:37:41.997Z,14.30
2022-12-25T22:40:10.713Z,14.95
2022-12-25T22:42:37.269Z,15.40
2022-12-25T22:45:04.766Z,14.98
2022-12-25T22:47:31.205Z,15.20
2022-12-25T22:49:58.505Z,15.52
2022-12-25T22:52:24.996Z,18.02
2022-12-25T22:54:52.262Z,16.83
2022-12-25T22:57:18.703Z,15.55
2022-12-25T22:59:46.095Z,15.85
2022-12-25T23:02:12.666Z,16.15
2022-12-25T23:04:39.184Z,14.77
2022-12-25T23:07:06.601Z,15.43
2022-12-25T23:09:33.088Z,16.17
2022-12-25T23:12:00.293Z,16.38
2022-12-25T23:14:39.577Z,16.13
2022-12-25T23:17:31.101Z,15.95
2022-12-25T23:20:17.806Z,11.85
2022-12-25T23:23:04.396Z,15.82
2022-12-25T23:25:50.021Z,16.77
2022-12-25T23:28:36.412Z,16.40
2022-12-25T23:31:03.555Z,17.77
2022-12-25T23:33:30.654Z,17.58
2022-12-25T23:35:57.112Z,18.55
2022-12-25T23:38:23.636Z,16.38
2022-12-25T23:40:50.028Z,17.63
2022-12-25T23:43:16.547Z,16.73
2022-12-25T23:45:43.099Z,16.60
2022-12-25T23:48:09.539Z,17.92
2022-12-25T23:50:35.976Z,16.65
2022-12-25T23:53:02.406Z,16.70
2022-12-25T23:55:28.820Z,17.95
2022-12-25T23:57:55.266Z,16.58
